Ravensdale, WA

8:38 AM PDT on April 19, 2015 (GMT -0700)
McDonald Peak Trailhead | Change Station
CLOSE
Current Station
Personal Weather Station
Location: Ravensdale, WA
Elevation: 950 ft
Nearby Weather Stations

Elev 950 ft 47.36 °N, 121.89 °W | Updated 8 minutes ago

Partly Cloudy
Partly Cloudy
45.5 °F
Feels Like 46 °F
N
0.7
Wind Variable Wind from East
Gusts 1.6 mph

Today
High -- | Low -- °F
--% Chance of Precip.
Yesterday
High -- | Low -- °F
Precip. -- in
6:12 AM 8:02 PM
New Moon, 1% visible
Pressure 30.24 in
Visibility 10.0 miles
Clouds Clear
Windchill 46 °F
Dew Point 44 °F
Humidity 96%
Rainfall 0.00 in
Snow Depth 0 in
UV 1 out of 12
Pollen 10.70 out of 12
PM2.5 Good
Flu Activity Regional
METAR KRNT 191453Z 00000KT 10SM CLR 08/05 A3022 RMK AO2 SLP238 T00780050 56001

More Conditions Fewer Conditions

Pressure 30.24 in
Visibility 10.0 miles
Clouds Clear
Windchill 46 °F
Dew Point 44 °F
Humidity 96%
Rainfall 0.00 in
Snow Depth 0 in
UV 1 out of 12
Pollen 10.70 out of 12
PM2.5 Good
Flu Activity Regional
METAR KRNT 191453Z 00000KT 10SM CLR 08/05 A3022 RMK AO2 SLP238 T00780050 56001

More Conditions Fewer Conditions

10-Day Weather Forecast

Almanac

Astronomy

Apr. 19, 2015 Rise Set
Actual Time 6:12 AM PDT 8:02 PM PDT
Civil Twilight 5:39 AM PDT 8:34 PM PDT
Nautical Twilight 4:59 AM PDT 9:15 PM PDT
Astronomical Twilight 4:15 AM PDT 9:59 PM PDT
Moon 6:57 AM PDT 9:28 PM PDT
Length of Visible Light 14h 55m
Length of Day
13h 50m
Tomorrow will be 3m 13s longer.
New Moon, 1% of the Moon is Illuminated
Today
New Moon
Apr 25
First Quarter
May 3
Full
May 11
Last Quarter
May 18
New

Today's Extremes

State Highs State Lows

Community

WunderPhotos

Upload Photos

1,814,838 photos uploaded!

Nearby

Air Quality

  Air Quality AQ Index Pollutant
Yesterday Good
OZONE
Yesterday Good
PM2.5
Current Good
PM2.5
Sunday Good
PM2.5
Monday Good
PM2.5
Tuesday Good
PM2.5

Snow Depth

Station Depth Elevation
Mount Gardner 0 in 3000 ft
Meadows Pass 1 in 3500 ft
Olallie Meadows 8 in 3700 ft
Burnt Mountain 1 in 4200 ft
Alpine Meadows 177 in 3500 ft

Earthquake Activity

City Distance Mag. Time & Date
No recent earthquake activity has been reported nearby.
Minimum magnitude displayed is 2.5.

Coastal Water Temperatures

Place Temperature
Port Townsend, WA 48.9 °F
Seattle, WA 50.0 °F
Friday Harbor, WA 48.9 °F
Tacoma, WA 50.0 °F

Nearby Weather Stations